createdAt,value
2023-03-29T00:01:42.385Z,2.70
2023-03-29T00:06:48.640Z,3.27
2023-03-29T00:11:51.810Z,2.87
2023-03-29T00:16:54.986Z,3.13
2023-03-29T00:21:59.493Z,3.00
2023-03-29T00:27:02.665Z,3.30
2023-03-29T00:32:06.486Z,2.97
2023-03-29T00:37:12.442Z,3.27
2023-03-29T00:42:17.987Z,2.87
2023-03-29T00:47:26.049Z,2.97
2023-03-29T00:52:36.097Z,3.13
2023-03-29T00:57:43.336Z,3.00
2023-03-29T01:02:54.217Z,3.03
2023-03-29T01:08:02.340Z,3.53
2023-03-29T01:13:09.545Z,3.00
2023-03-29T01:18:12.866Z,2.80
2023-03-29T01:23:34.206Z,2.60
2023-03-29T01:28:43.110Z,2.27
2023-03-29T01:33:50.500Z,2.93
2023-03-29T01:38:58.103Z,2.87
2023-03-29T01:44:07.189Z,3.07
2023-03-29T01:49:18.827Z,3.10
2023-03-29T01:54:25.331Z,3.03
2023-03-29T01:59:33.088Z,2.50
2023-03-29T02:04:40.744Z,2.10
2023-03-29T02:09:44.993Z,2.20
2023-03-29T02:14:49.538Z,1.70
2023-03-29T02:19:59.409Z,1.60
2023-03-29T02:25:04.807Z,1.53
2023-03-29T02:30:12.085Z,1.60
2023-03-29T02:35:22.422Z,1.60
2023-03-29T02:40:26.910Z,1.30
2023-03-29T02:45:32.168Z,1.23
2023-03-29T02:50:38.803Z,1.50
2023-03-29T02:55:42.151Z,1.40
2023-03-29T03:00:49.309Z,1.30
2023-03-29T03:05:53.887Z,1.20
2023-03-29T03:10:57.272Z,1.63
2023-03-29T03:16:03.284Z,1.57
2023-03-29T03:21:07.299Z,1.67
2023-03-29T03:26:10.780Z,2.10
2023-03-29T03:31:15.788Z,1.60
2023-03-29T03:36:18.901Z,1.60
2023-03-29T03:41:22.755Z,1.47
2023-03-29T03:46:29.474Z,2.00
2023-03-29T03:51:32.899Z,1.80
2023-03-29T03:56:36.036Z,1.70
2023-03-29T04:01:43.474Z,1.90
2023-03-29T04:06:46.705Z,2.30
2023-03-29T04:11:49.792Z,2.50
2023-03-29T04:16:54.505Z,2.80
2023-03-29T04:21:57.614Z,2.37
2023-03-29T04:27:00.733Z,2.20
2023-03-29T04:32:05.286Z,1.93
2023-03-29T04:37:10.571Z,2.03
2023-03-29T04:42:14.005Z,2.20
2023-03-29T04:47:20.294Z,4.43
2023-03-29T04:52:24.615Z,2.93
2023-03-29T04:57:28.388Z,2.27
2023-03-29T05:02:33.231Z,2.20
2023-03-29T05:07:37.116Z,2.10
2023-03-29T05:12:40.342Z,2.80
2023-03-29T05:17:44.801Z,2.57
2023-03-29T05:22:48.680Z,2.10
2023-03-29T05:27:52.269Z,1.90
2023-03-29T05:32:56.833Z,1.87
2023-03-29T05:38:00.838Z,1.70
2023-03-29T05:43:04.074Z,1.60
2023-03-29T05:48:08.956Z,1.70
2023-03-29T05:53:12.153Z,1.43
2023-03-29T05:58:15.760Z,1.63
2023-03-29T06:03:23.790Z,1.70
2023-03-29T06:08:27.742Z,1.60
2023-03-29T06:13:32.004Z,1.70
2023-03-29T06:18:38.188Z,1.80
2023-03-29T06:23:41.806Z,1.50
2023-03-29T06:28:45.161Z,1.30
2023-03-29T06:33:49.657Z,1.50
2023-03-29T06:38:52.947Z,2.03
2023-03-29T06:43:56.246Z,2.17
2023-03-29T06:49:01.489Z,1.77
2023-03-29T06:54:05.480Z,1.80
2023-03-29T06:59:08.598Z,1.90
2023-03-29T07:04:13.101Z,1.80
2023-03-29T07:09:18.370Z,1.80
2023-03-29T07:14:22.697Z,1.70
2023-03-29T07:19:30.228Z,1.90
2023-03-29T07:24:33.418Z,1.80
2023-03-29T07:29:39.770Z,1.77
2023-03-29T07:34:48.365Z,1.80
2023-03-29T07:39:52.486Z,1.93
2023-03-29T07:44:55.800Z,2.00
2023-03-29T07:50:00.320Z,2.10
2023-03-29T07:55:04.850Z,2.00
2023-03-29T08:00:16.521Z,2.10
2023-03-29T08:05:37.523Z,5.67
2023-03-29T08:10:44.689Z,3.23
2023-03-29T08:15:48.806Z,3.33
2023-03-29T08:20:53.335Z,2.90
2023-03-29T08:25:56.809Z,2.80
2023-03-29T08:31:00.146Z,2.43
2023-03-29T08:36:05.559Z,2.37
2023-03-29T08:41:24.600Z,2.30
2023-03-29T08:46:37.137Z,2.23
2023-03-29T08:51:46.470Z,2.00
2023-03-29T08:56:51.345Z,2.20
2023-03-29T09:01:58.203Z,1.90
2023-03-29T09:07:04.078Z,1.70
2023-03-29T09:12:19.962Z,1.77
2023-03-29T09:17:34.064Z,1.53
2023-03-29T09:22:44.868Z,1.60
2023-03-29T09:27:54.795Z,1.50
2023-03-29T09:33:01.882Z,1.53
2023-03-29T09:38:10.584Z,1.60
2023-03-29T09:43:18.405Z,1.50
2023-03-29T09:48:22.606Z,1.60
2023-03-29T09:53:27.283Z,1.10
2023-03-29T09:58:32.822Z,1.87
2023-03-29T10:03:37.337Z,1.67
2023-03-29T10:08:47.136Z,1.63
2023-03-29T10:13:54.969Z,1.70
2023-03-29T10:18:58.090Z,1.47
2023-03-29T10:24:02.552Z,1.30
2023-03-29T10:29:08.567Z,1.53
2023-03-29T10:34:15.191Z,1.57
2023-03-29T10:39:20.426Z,1.90
2023-03-29T10:44:30.925Z,1.50
2023-03-29T10:49:42.192Z,1.60
2023-03-29T10:54:47.579Z,1.50
2023-03-29T10:59:59.028Z,1.73
2023-03-29T11:05:22.022Z,1.50
2023-03-29T11:10:37.380Z,1.40
2023-03-29T11:15:50.697Z,1.87
2023-03-29T11:21:02.662Z,1.47
2023-03-29T11:26:14.178Z,1.60
2023-03-29T11:31:29.261Z,1.60
2023-03-29T11:36:41.865Z,1.53
2023-03-29T11:41:50.096Z,1.40
2023-03-29T11:46:59.734Z,4.40
2023-03-29T11:52:06.953Z,1.90
2023-03-29T11:57:19.378Z,1.57
2023-03-29T12:02:31.302Z,1.73
2023-03-29T12:07:38.303Z,1.30
2023-03-29T12:12:47.581Z,1.30
2023-03-29T12:18:00.224Z,1.57
2023-03-29T12:23:04.039Z,1.47
2023-03-29T12:28:49.160Z,1.77
2023-03-29T12:34:09.585Z,2.90
2023-03-29T12:39:15.918Z,1.63
2023-03-29T12:44:24.510Z,1.67
2023-03-29T12:49:39.981Z,1.70
2023-03-29T12:54:53.664Z,1.70
2023-03-29T13:00:08.765Z,2.83
2023-03-29T13:05:30.618Z,2.10
2023-03-29T13:10:40.689Z,1.50
2023-03-29T13:15:46.552Z,1.77
2023-03-29T13:21:02.834Z,1.70
2023-03-29T13:26:30.209Z,1.80
2023-03-29T13:31:40.388Z,1.60
2023-03-29T13:36:55.184Z,1.57
2023-03-29T13:42:09.306Z,2.00
2023-03-29T13:47:36.721Z,1.97
2023-03-29T13:52:44.476Z,1.73
2023-03-29T13:57:54.534Z,1.40
2023-03-29T14:03:01.495Z,1.70
2023-03-29T14:08:10.103Z,1.70
2023-03-29T14:13:14.980Z,1.60
2023-03-29T14:18:23.378Z,1.63
2023-03-29T14:23:30.228Z,1.70
2023-03-29T14:28:34.583Z,1.60
2023-03-29T14:33:39.127Z,1.97
2023-03-29T14:38:42.842Z,1.70
2023-03-29T14:43:47.538Z,1.63
2023-03-29T14:48:52.199Z,2.07
2023-03-29T14:53:56.076Z,1.80
2023-03-29T14:59:05.056Z,2.47
2023-03-29T15:04:11.092Z,2.97
2023-03-29T15:09:18.703Z,2.20
2023-03-29T15:14:23.549Z,1.93
2023-03-29T15:19:28.278Z,2.17
2023-03-29T15:24:33.312Z,1.60
2023-03-29T15:29:41.807Z,1.30
2023-03-29T15:34:46.386Z,1.60
2023-03-29T15:39:50.028Z,1.90
2023-03-29T15:44:56.350Z,1.70
2023-03-29T15:50:02.771Z,1.50
2023-03-29T15:55:06.889Z,1.50
2023-03-29T16:00:15.255Z,1.77
2023-03-29T16:05:20.045Z,1.60
2023-03-29T16:10:23.257Z,1.93
2023-03-29T16:15:27.889Z,4.30
2023-03-29T16:20:32.370Z,2.30
2023-03-29T16:25:36.945Z,2.57
2023-03-29T16:30:44.826Z,1.80
2023-03-29T16:35:49.275Z,2.10
2023-03-29T16:40:53.761Z,2.00
2023-03-29T16:45:56.927Z,2.83
2023-03-29T16:51:02.193Z,2.13
2023-03-29T16:56:06.004Z,3.77
2023-03-29T17:01:10.958Z,2.00
2023-03-29T17:06:15.716Z,1.87
2023-03-29T17:11:23.116Z,2.03
2023-03-29T17:16:28.822Z,1.60
2023-03-29T17:21:33.831Z,1.87
2023-03-29T17:26:38.072Z,2.93
2023-03-29T17:31:46.982Z,3.27
2023-03-29T17:36:53.416Z,3.00
2023-03-29T17:41:56.778Z,3.40
2023-03-29T17:47:00.590Z,3.40
2023-03-29T17:52:05.342Z,2.40
2023-03-29T17:57:08.480Z,2.20
2023-03-29T18:02:17.252Z,1.70
2023-03-29T18:07:21.738Z,1.87
2023-03-29T18:12:26.143Z,1.80
2023-03-29T18:17:29.264Z,2.17
2023-03-29T18:22:34.208Z,2.13
2023-03-29T18:27:37.501Z,2.80
2023-03-29T18:32:40.870Z,5.17
2023-03-29T18:37:45.457Z,3.70
2023-03-29T18:42:48.614Z,3.60
2023-03-29T18:47:52.557Z,2.70
2023-03-29T18:52:57.219Z,2.40
2023-03-29T18:58:00.280Z,2.13
2023-03-29T19:03:03.625Z,2.57
2023-03-29T19:08:09.161Z,6.30
2023-03-29T19:13:12.360Z,7.30
2023-03-29T19:18:16.091Z,5.60
2023-03-29T19:23:21.246Z,3.73
2023-03-29T19:28:24.807Z,4.60
2023-03-29T19:33:28.306Z,3.57
2023-03-29T19:38:32.984Z,4.60
2023-03-29T19:43:36.397Z,9.87
2023-03-29T19:48:41.037Z,13.83
2023-03-29T19:53:45.606Z,8.10
2023-03-29T19:58:49.445Z,6.47
2023-03-29T20:03:52.657Z,7.67
2023-03-29T20:08:57.830Z,10.17
2023-03-29T20:14:00.982Z,6.27
2023-03-29T20:19:04.259Z,3.87
2023-03-29T20:24:09.769Z,3.93
2023-03-29T20:29:15.290Z,2.70
2023-03-29T20:34:19.032Z,2.83
2023-03-29T20:39:25.700Z,3.23
2023-03-29T20:44:29.387Z,2.83
2023-03-29T20:49:37.185Z,2.80
2023-03-29T20:54:42.054Z,2.60
2023-03-29T20:59:46.638Z,3.23
2023-03-29T21:04:54.383Z,2.67
2023-03-29T21:10:01.122Z,2.53
2023-03-29T21:15:05.533Z,3.03
2023-03-29T21:20:11.141Z,3.00
2023-03-29T21:25:15.891Z,2.50
2023-03-29T21:30:19.084Z,2.70
2023-03-29T21:35:22.383Z,2.80
2023-03-29T21:40:26.937Z,2.30
2023-03-29T21:45:30.178Z,1.93
2023-03-29T21:50:34.341Z,2.97
2023-03-29T21:55:38.909Z,3.03
2023-03-29T22:00:42.586Z,2.70
2023-03-29T22:05:57.001Z,2.80
2023-03-29T22:11:09.340Z,2.93
2023-03-29T22:16:16.875Z,3.50
2023-03-29T22:21:23.587Z,2.80
2023-03-29T22:26:29.954Z,3.40
2023-03-29T22:31:33.207Z,3.03
2023-03-29T22:36:37.450Z,2.90
2023-03-29T22:41:42.323Z,3.40
2023-03-29T22:46:45.581Z,3.10
2023-03-29T22:51:48.912Z,3.03
2023-03-29T22:56:53.472Z,3.30
2023-03-29T23:01:57.077Z,2.93
2023-03-29T23:07:00.375Z,3.57
2023-03-29T23:12:05.060Z,3.03
2023-03-29T23:17:10.262Z,3.03
2023-03-29T23:22:13.629Z,3.10
2023-03-29T23:27:18.477Z,3.17
2023-03-29T23:32:21.643Z,3.10
2023-03-29T23:37:25.006Z,2.87
2023-03-29T23:42:30.831Z,2.87
2023-03-29T23:47:34.412Z,2.93
2023-03-29T23:52:38.224Z,3.00
2023-03-29T23:57:43.202Z,2.73
